createdAt,value
2018-08-16T00:00:31.250Z,101785.60
2018-08-16T00:02:59.638Z,101788.23
2018-08-16T00:05:28.014Z,101782.96
2018-08-16T00:07:56.711Z,101783.83
2018-08-16T00:10:25.098Z,101786.05
2018-08-16T00:12:53.514Z,101787.79
2018-08-16T00:15:22.851Z,101783.83
2018-08-16T00:17:51.274Z,101783.41
2018-08-16T00:20:19.639Z,101783.83
2018-08-16T00:22:48.323Z,101787.78
2018-08-16T00:25:17.294Z,101782.50
2018-08-16T00:27:45.715Z,101781.18
2018-08-16T00:30:16.226Z,101784.64
2018-08-16T00:32:45.002Z,101785.55
2018-08-16T00:35:13.494Z,101785.05
2018-08-16T00:37:41.930Z,101783.32
2018-08-16T00:40:12.570Z,101789.02
2018-08-16T00:42:40.962Z,101777.17
2018-08-16T00:45:10.103Z,101781.55
2018-08-16T00:47:38.491Z,101781.55
2018-08-16T00:50:08.584Z,101781.55
2018-08-16T00:52:36.999Z,101777.17
2018-08-16T00:55:06.379Z,101782.87
2018-08-16T00:57:34.943Z,101776.72
2018-08-16T01:00:03.330Z,101778.45
2018-08-16T01:02:31.719Z,101774.94
2018-08-16T01:05:00.090Z,101779.31
2018-08-16T01:07:28.485Z,101773.58
2018-08-16T01:09:56.859Z,101779.30
2018-08-16T01:12:25.267Z,101780.62
2018-08-16T01:14:53.671Z,101775.81
2018-08-16T01:17:22.072Z,101776.27
2018-08-16T01:19:50.465Z,101773.22
2018-08-16T01:22:18.866Z,101781.14
2018-08-16T01:24:47.230Z,101778.95
2018-08-16T01:27:15.803Z,101775.00
2018-08-16T01:29:44.178Z,101771.49
2018-08-16T01:32:12.583Z,101777.64
2018-08-16T01:34:40.954Z,101776.31
2018-08-16T01:37:09.367Z,101778.95
2018-08-16T01:39:37.741Z,101785.55
2018-08-16T01:42:06.143Z,101784.23
2018-08-16T01:44:34.505Z,101779.37
2018-08-16T01:47:02.895Z,101779.37
2018-08-16T01:49:35.760Z,101779.81
2018-08-16T01:52:04.158Z,101778.50
2018-08-16T01:54:32.782Z,101783.78
2018-08-16T01:57:01.849Z,101778.05
2018-08-16T01:59:30.238Z,101776.77
2018-08-16T02:01:58.605Z,101779.41
2018-08-16T02:04:27.007Z,101782.46
2018-08-16T02:06:55.425Z,101777.18
2018-08-16T02:09:24.297Z,101777.18
2018-08-16T02:11:53.055Z,101781.59
2018-08-16T02:14:21.866Z,101780.28
2018-08-16T02:16:51.038Z,101778.95
2018-08-16T02:19:19.434Z,101779.82
2018-08-16T02:21:47.798Z,101775.86
2018-08-16T02:24:16.203Z,101777.18
2018-08-16T02:26:44.574Z,101782.05
2018-08-16T02:29:12.973Z,101777.64
2018-08-16T02:31:41.346Z,101776.36
2018-08-16T02:34:09.742Z,101777.69
2018-08-16T02:36:38.106Z,101779.88
2018-08-16T02:39:08.731Z,101783.42
2018-08-16T02:41:37.391Z,101780.83
2018-08-16T02:44:06.098Z,101779.93
2018-08-16T02:46:34.474Z,101784.38
2018-08-16T02:49:02.862Z,101779.16
2018-08-16T02:51:31.226Z,101769.52
2018-08-16T02:53:59.613Z,101776.56
2018-08-16T02:56:27.995Z,101777.47
2018-08-16T02:58:56.382Z,101772.66
2018-08-16T03:01:24.745Z,101769.61
2018-08-16T03:03:53.143Z,101765.70
2018-08-16T03:06:21.526Z,101765.25
2018-08-16T03:08:49.918Z,101770.11
2018-08-16T03:11:18.299Z,101771.89
2018-08-16T03:13:46.685Z,101770.12
2018-08-16T03:16:15.077Z,101767.97
2018-08-16T03:18:43.473Z,101766.20
2018-08-16T03:21:11.839Z,101764.92
2018-08-16T03:23:40.235Z,101761.88
2018-08-16T03:26:08.602Z,101766.25
2018-08-16T03:28:36.993Z,101769.80
2018-08-16T03:31:05.463Z,101770.25
2018-08-16T03:33:33.854Z,101766.75
2018-08-16T03:36:02.218Z,101766.34
2018-08-16T03:38:30.611Z,101764.20
2018-08-16T03:40:58.970Z,101762.92
2018-08-16T03:43:27.371Z,101762.97
2018-08-16T03:45:55.733Z,101765.19
2018-08-16T03:48:24.126Z,101764.78
2018-08-16T03:50:52.500Z,101770.09
2018-08-16T03:53:20.905Z,101777.55
2018-08-16T03:55:49.281Z,101773.19
2018-08-16T03:58:17.649Z,101767.91
2018-08-16T04:00:46.121Z,101774.05
2018-08-16T04:03:14.491Z,101767.91
2018-08-16T04:05:42.881Z,101764.83
2018-08-16T04:08:11.245Z,101770.06
2018-08-16T04:10:40.105Z,101765.69
2018-08-16T04:13:08.473Z,101761.73
2018-08-16T04:15:37.054Z,101759.95
2018-08-16T04:18:11.990Z,101764.33
2018-08-16T04:20:40.423Z,101766.09
2018-08-16T04:23:08.805Z,101769.60
2018-08-16T04:25:37.186Z,101766.55
2018-08-16T04:28:05.675Z,101770.91
2018-08-16T04:30:34.187Z,101769.14
2018-08-16T04:33:02.550Z,101775.28
2018-08-16T04:35:30.977Z,101775.73
2018-08-16T04:37:59.333Z,101775.28
2018-08-16T04:40:27.725Z,101777.05
2018-08-16T04:42:56.093Z,101772.65
2018-08-16T04:45:24.511Z,101774.83
2018-08-16T04:47:52.877Z,101775.25
2018-08-16T04:50:21.286Z,101775.66
2018-08-16T04:52:49.662Z,101780.48
2018-08-16T04:55:18.073Z,101775.20
2018-08-16T04:57:46.442Z,101779.11
2018-08-16T05:00:14.858Z,101778.25
2018-08-16T05:02:43.253Z,101773.84
2018-08-16T05:05:11.646Z,101780.39
2018-08-16T05:07:40.136Z,101776.39
2018-08-16T05:10:10.093Z,101778.98
2018-08-16T05:12:38.655Z,101777.62
2018-08-16T05:15:09.107Z,101784.17
2018-08-16T05:17:37.494Z,101778.84
2018-08-16T05:20:07.719Z,101778.34
2018-08-16T05:22:36.099Z,101779.16
2018-08-16T05:25:05.285Z,101781.30
2018-08-16T05:27:33.751Z,101783.02
2018-08-16T05:30:02.159Z,101779.87
2018-08-16T05:32:30.539Z,101785.09
2018-08-16T05:34:59.106Z,101782.41
2018-08-16T05:37:27.488Z,101773.57
2018-08-16T05:39:55.878Z,101780.98
2018-08-16T05:42:24.426Z,101775.68
2018-08-16T05:44:52.825Z,101776.03
2018-08-16T05:47:21.185Z,101780.34
2018-08-16T05:49:49.569Z,101774.15
2018-08-16T05:52:18.041Z,101771.48
2018-08-16T05:54:46.438Z,101767.89
2018-08-16T05:57:14.802Z,101772.23
2018-08-16T05:59:43.185Z,101771.72
2018-08-16T06:02:11.650Z,101768.15
2018-08-16T06:04:40.069Z,101765.86
2018-08-16T06:07:08.451Z,101769.77
2018-08-16T06:09:36.827Z,101766.19
2018-08-16T06:12:05.345Z,101766.13
2018-08-16T06:14:33.710Z,101767.79
2018-08-16T06:17:02.118Z,101766.80
2018-08-16T06:19:30.485Z,101767.12
2018-08-16T06:21:58.892Z,101764.36
2018-08-16T06:24:27.267Z,101764.26
2018-08-16T06:26:55.662Z,101769.91
2018-08-16T06:29:24.036Z,101771.12
2018-08-16T06:31:52.428Z,101765.30
2018-08-16T06:34:20.821Z,101763.05
2018-08-16T06:36:49.209Z,101765.62
2018-08-16T06:39:17.582Z,101766.41
2018-08-16T06:41:45.979Z,101764.98
2018-08-16T06:44:14.346Z,101765.78
2018-08-16T06:46:42.734Z,101768.34
2018-08-16T06:49:11.114Z,101765.63
2018-08-16T06:51:39.519Z,101766.48
2018-08-16T06:54:08.065Z,101770.35
2018-08-16T06:56:36.449Z,101770.23
2018-08-16T06:59:04.862Z,101767.94
2018-08-16T07:01:33.410Z,101764.29
2018-08-16T07:04:01.793Z,101769.52
2018-08-16T07:06:30.188Z,101766.34
2018-08-16T07:08:58.567Z,101765.34
2018-08-16T07:11:26.954Z,101768.34
2018-08-16T07:13:55.345Z,101761.17
2018-08-16T07:16:23.777Z,101763.64
2018-08-16T07:18:52.302Z,101765.66
2018-08-16T07:21:20.683Z,101760.66
2018-08-16T07:23:49.274Z,101758.75
2018-08-16T07:26:17.670Z,101761.70
2018-08-16T07:28:46.157Z,101760.22
2018-08-16T07:31:14.550Z,101760.09
2018-08-16T07:33:42.940Z,101749.83
2018-08-16T07:36:11.337Z,101758.05
2018-08-16T07:38:39.913Z,101750.38
2018-08-16T07:41:08.311Z,101748.88
2018-08-16T07:43:36.682Z,101754.94
2018-08-16T07:46:05.352Z,101751.69
2018-08-16T07:48:33.648Z,101748.00
2018-08-16T07:51:02.130Z,101748.20
2018-08-16T07:53:30.474Z,101743.62
2018-08-16T07:55:58.882Z,101751.44
2018-08-16T07:58:27.407Z,101754.87
2018-08-16T08:00:55.938Z,101750.80
2018-08-16T08:03:24.380Z,101748.89
2018-08-16T08:05:52.794Z,101746.61
2018-08-16T08:08:21.175Z,101749.14
2018-08-16T08:10:49.545Z,101752.55
2018-08-16T08:13:17.934Z,101750.56
2018-08-16T08:15:46.321Z,101748.66
2018-08-16T08:18:14.701Z,101748.97
2018-08-16T08:20:43.115Z,101746.58
2018-08-16T08:23:11.502Z,101745.13
2018-08-16T08:25:40.010Z,101741.87
2018-08-16T08:28:08.678Z,101743.02
2018-08-16T08:30:37.050Z,101738.87
2018-08-16T08:33:05.472Z,101736.88
2018-08-16T08:35:33.924Z,101736.25
2018-08-16T08:38:09.881Z,101734.22
2018-08-16T08:40:38.272Z,101723.75
2018-08-16T08:43:07.010Z,101726.99
2018-08-16T08:45:35.381Z,101719.70
2018-08-16T08:48:03.774Z,101716.41
2018-08-16T08:50:32.162Z,101716.55
2018-08-16T08:53:11.786Z,101722.03
2018-08-16T08:55:51.418Z,101716.97
2018-08-16T08:58:51.946Z,101714.95
2018-08-16T09:01:20.317Z,101710.81
2018-08-16T09:03:48.707Z,101704.91
2018-08-16T09:06:17.071Z,101702.09
2018-08-16T09:08:45.457Z,101697.95
2018-08-16T09:11:25.227Z,101693.45
2018-08-16T09:14:06.286Z,101696.47
2018-08-16T09:16:41.702Z,101694.16
2018-08-16T09:19:10.818Z,101691.39
2018-08-16T09:21:39.210Z,101693.54
2018-08-16T09:24:07.705Z,101692.09
2018-08-16T09:26:39.726Z,101686.14
2018-08-16T09:30:20.732Z,101687.66
2018-08-16T09:33:00.500Z,101688.67
2018-08-16T09:35:29.569Z,101686.24
2018-08-16T09:37:58.364Z,101681.26
2018-08-16T09:40:26.747Z,101679.64
2018-08-16T09:42:55.150Z,101679.86
2018-08-16T09:45:34.892Z,101676.22
2018-08-16T09:48:14.656Z,101671.70
2018-08-16T09:50:43.111Z,101673.31
2018-08-16T09:53:11.501Z,101667.47
2018-08-16T09:55:39.915Z,101663.30
2018-08-16T09:58:08.322Z,101663.00
2018-08-16T10:00:41.938Z,101664.89
2018-08-16T10:03:10.350Z,101657.49
2018-08-16T10:05:38.743Z,101650.63
2018-08-16T10:08:07.158Z,101645.59
2018-08-16T10:10:35.534Z,101649.44
2018-08-16T10:13:03.930Z,101649.12
2018-08-16T10:15:32.337Z,101640.48
2018-08-16T10:18:00.703Z,101642.82
2018-08-16T10:20:29.096Z,101639.92
2018-08-16T10:22:57.513Z,101643.27
2018-08-16T10:25:25.903Z,101636.71
2018-08-16T10:27:54.269Z,101628.39
2018-08-16T10:30:22.683Z,101629.61
2018-08-16T10:32:51.054Z,101630.20
2018-08-16T10:35:19.448Z,101629.13
2018-08-16T10:37:47.819Z,101629.13
2018-08-16T10:40:16.220Z,101623.79
2018-08-16T10:42:44.595Z,101622.78
2018-08-16T10:45:13.007Z,101617.23
2018-08-16T10:47:41.382Z,101624.45
2018-08-16T10:50:09.789Z,101626.69
2018-08-16T10:52:38.171Z,101629.34
2018-08-16T10:55:06.647Z,101621.46
2018-08-16T10:57:35.010Z,101620.25
2018-08-16T11:00:03.428Z,101612.98
2018-08-16T11:02:31.816Z,101613.64
2018-08-16T11:05:00.218Z,101606.70
2018-08-16T11:07:28.602Z,101608.53
2018-08-16T11:09:56.999Z,101604.64
2018-08-16T11:12:25.379Z,101611.58
2018-08-16T11:14:53.823Z,101606.89
2018-08-16T11:17:22.187Z,101603.59
2018-08-16T11:19:50.581Z,101602.99
2018-08-16T11:22:18.951Z,101593.55
2018-08-16T11:24:47.341Z,101597.34
2018-08-16T11:27:15.779Z,101598.08
2018-08-16T11:29:44.171Z,101588.95
2018-08-16T11:32:12.546Z,101596.75
2018-08-16T11:34:40.942Z,101593.16
2018-08-16T11:37:09.314Z,101584.03
2018-08-16T11:39:37.709Z,101579.86
2018-08-16T11:42:06.081Z,101575.66
2018-08-16T11:44:34.470Z,101573.63
2018-08-16T11:47:02.838Z,101575.13
2018-08-16T11:49:31.230Z,101567.52
2018-08-16T11:51:59.602Z,101566.97
2018-08-16T11:54:27.994Z,101557.08
2018-08-16T11:56:56.377Z,101572.22
2018-08-16T11:59:24.782Z,101557.08
2018-08-16T12:01:53.155Z,101560.30
2018-08-16T12:04:21.559Z,101553.92
2018-08-16T12:06:49.944Z,101550.13
2018-08-16T12:09:18.319Z,101550.45
2018-08-16T12:11:46.719Z,101547.64
2018-08-16T12:14:15.085Z,101536.95
2018-08-16T12:16:43.496Z,101543.95
2018-08-16T12:19:11.858Z,101542.34
2018-08-16T12:21:40.272Z,101553.28
2018-08-16T12:24:08.645Z,101541.98
2018-08-16T12:26:37.058Z,101538.66
2018-08-16T12:29:05.478Z,101535.81
2018-08-16T12:31:33.945Z,101532.53
2018-08-16T12:34:02.314Z,101534.08
2018-08-16T12:36:30.715Z,101538.43
2018-08-16T12:38:59.311Z,101530.34
2018-08-16T12:41:27.712Z,101531.02
2018-08-16T12:43:56.099Z,101512.92
2018-08-16T12:46:24.522Z,101504.34
2018-08-16T12:48:52.918Z,101511.75
2018-08-16T12:51:21.313Z,101493.44
2018-08-16T12:53:49.691Z,101501.25
2018-08-16T12:56:18.083Z,101496.31
2018-08-16T12:58:46.449Z,101490.48
2018-08-16T13:01:14.852Z,101490.79
2018-08-16T13:03:43.227Z,101489.76
2018-08-16T13:06:11.676Z,101478.92
2018-08-16T13:08:40.055Z,101472.79
2018-08-16T13:11:08.445Z,101476.39
2018-08-16T13:13:36.835Z,101466.95
2018-08-16T13:16:05.253Z,101467.27
2018-08-16T13:18:35.275Z,101464.03
2018-08-16T13:21:03.676Z,101462.05
2018-08-16T13:23:32.111Z,101463.86
2018-08-16T13:26:00.462Z,101462.83
2018-08-16T13:28:28.835Z,101457.41
2018-08-16T13:30:57.230Z,101450.23
2018-08-16T13:33:25.685Z,101463.54
2018-08-16T13:35:54.074Z,101451.80
2018-08-16T13:38:22.447Z,101445.23
2018-08-16T13:40:50.842Z,101401.79
2018-08-16T13:43:19.224Z,101444.09
2018-08-16T13:45:47.627Z,101433.61
2018-08-16T13:48:16.007Z,101436.81
2018-08-16T13:50:44.417Z,101438.38
2018-08-16T13:53:12.800Z,101433.33
2018-08-16T13:55:41.194Z,101430.95
2018-08-16T13:58:09.564Z,101432.88
2018-08-16T14:00:37.950Z,101423.10
2018-08-16T14:03:06.469Z,101419.09
2018-08-16T14:05:34.873Z,101422.91
2018-08-16T14:08:03.265Z,101417.00
2018-08-16T14:10:31.638Z,101413.77
2018-08-16T14:13:00.025Z,101411.47
2018-08-16T14:15:28.424Z,101406.11
2018-08-16T14:17:56.818Z,101409.87
2018-08-16T14:20:25.190Z,101416.00
2018-08-16T14:22:53.590Z,101409.61
2018-08-16T14:25:21.987Z,101405.52
2018-08-16T14:27:50.369Z,101412.50
2018-08-16T14:30:18.758Z,101395.66
2018-08-16T14:32:47.150Z,101396.63
2018-08-16T14:35:15.525Z,101392.13
2018-08-16T14:37:43.914Z,101388.59
2018-08-16T14:40:12.300Z,101391.64
2018-08-16T14:42:40.733Z,101398.81
2018-08-16T14:45:09.601Z,101389.33
2018-08-16T14:47:38.320Z,101390.11
2018-08-16T14:50:07.382Z,101381.44
2018-08-16T14:52:35.909Z,101375.48
2018-08-16T14:55:04.724Z,101390.63
2018-08-16T14:57:33.125Z,101384.70
2018-08-16T15:00:01.607Z,101387.39
2018-08-16T15:02:29.997Z,101376.48
2018-08-16T15:04:58.370Z,101377.26
2018-08-16T15:07:26.762Z,101377.36
2018-08-16T15:09:55.143Z,101379.85
2018-08-16T15:12:23.606Z,101374.78
2018-08-16T15:14:52.007Z,101385.42
2018-08-16T15:17:20.422Z,101385.91
2018-08-16T15:19:48.794Z,101380.44
2018-08-16T15:22:17.211Z,101383.52
2018-08-16T15:24:45.580Z,101380.73
2018-08-16T15:27:13.983Z,101377.52
2018-08-16T15:29:42.368Z,101375.13
2018-08-16T15:32:10.781Z,101375.50
2018-08-16T15:34:39.158Z,101374.08
2018-08-16T15:37:07.545Z,101379.36
2018-08-16T15:39:35.983Z,101376.20
2018-08-16T15:42:04.418Z,101380.70
2018-08-16T15:44:32.770Z,101374.16
2018-08-16T15:47:01.220Z,101372.69
2018-08-16T15:49:29.623Z,101369.83
2018-08-16T15:51:58.018Z,101367.23
2018-08-16T15:54:26.403Z,101368.20
2018-08-16T15:56:54.803Z,101363.70
2018-08-16T15:59:23.187Z,101361.50
2018-08-16T16:01:51.575Z,101359.27
2018-08-16T16:04:19.946Z,101359.88
2018-08-16T16:06:48.323Z,101356.70
2018-08-16T16:09:16.714Z,101350.79
2018-08-16T16:11:45.103Z,101349.33
2018-08-16T16:14:13.503Z,101351.94
2018-08-16T16:16:41.908Z,101346.09
2018-08-16T16:19:10.302Z,101341.59
2018-08-16T16:21:38.706Z,101337.41
2018-08-16T16:24:07.131Z,101329.66
2018-08-16T16:26:35.528Z,101342.01
2018-08-16T16:29:03.955Z,101331.97
2018-08-16T16:31:32.339Z,101337.48
2018-08-16T16:34:00.742Z,101332.70
2018-08-16T16:36:29.154Z,101337.57
2018-08-16T16:38:57.599Z,101333.47
2018-08-16T16:41:26.115Z,101326.61
2018-08-16T16:43:54.522Z,101329.96
2018-08-16T16:46:22.903Z,101323.65
2018-08-16T16:48:51.319Z,101316.17
2018-08-16T16:51:19.695Z,101317.14
2018-08-16T16:53:48.105Z,101317.38
2018-08-16T16:56:16.478Z,101314.06
2018-08-16T16:58:44.878Z,101313.98
2018-08-16T17:01:13.734Z,101311.66
2018-08-16T17:03:42.177Z,101313.72
2018-08-16T17:06:10.590Z,101304.95
2018-08-16T17:08:39.023Z,101307.55
2018-08-16T17:11:07.467Z,101310.81
2018-08-16T17:13:35.922Z,101306.32
2018-08-16T17:16:04.662Z,101304.58
2018-08-16T17:18:33.045Z,101302.88
2018-08-16T17:21:01.417Z,101306.16
2018-08-16T17:23:29.827Z,101306.56
2018-08-16T17:25:58.226Z,101309.80
2018-08-16T17:28:26.651Z,101314.03
2018-08-16T17:30:55.058Z,101317.44
2018-08-16T17:33:23.454Z,101313.88
2018-08-16T17:35:51.834Z,101316.42
2018-08-16T17:38:20.842Z,101319.09
2018-08-16T17:40:49.264Z,101318.86
2018-08-16T17:43:17.657Z,101317.33
2018-08-16T17:45:46.040Z,101324.55
2018-08-16T17:48:14.443Z,101312.84
2018-08-16T17:50:42.831Z,101323.68
2018-08-16T17:53:11.228Z,101316.22
2018-08-16T17:55:39.607Z,101297.05
2018-08-16T17:58:08.397Z,101322.56
2018-08-16T18:00:36.767Z,101317.16
2018-08-16T18:03:05.151Z,101320.52
2018-08-16T18:05:33.541Z,101323.41
2018-08-16T18:08:01.930Z,101321.78
2018-08-16T18:10:30.347Z,101325.05
2018-08-16T18:12:58.763Z,101323.78
2018-08-16T18:15:27.186Z,101328.27
2018-08-16T18:17:55.555Z,101327.52
2018-08-16T18:20:23.954Z,101320.93
2018-08-16T18:22:52.334Z,101320.44
2018-08-16T18:25:20.730Z,101327.52
2018-08-16T18:27:49.112Z,101322.67
2018-08-16T18:30:17.515Z,101327.95
2018-08-16T18:32:45.900Z,101325.30
2018-08-16T18:35:14.310Z,101320.41
2018-08-16T18:37:42.838Z,101325.27
2018-08-16T18:40:11.246Z,101322.19
2018-08-16T18:42:39.668Z,101327.97
2018-08-16T18:45:08.028Z,101325.30
2018-08-16T18:47:36.402Z,101331.44
2018-08-16T18:50:04.929Z,101332.25
2018-08-16T18:52:33.303Z,101337.09
2018-08-16T18:55:01.701Z,101331.09
2018-08-16T18:57:30.076Z,101328.05
2018-08-16T18:59:58.610Z,101330.73
2018-08-16T19:02:26.993Z,101340.47
2018-08-16T19:04:55.423Z,101339.13
2018-08-16T19:07:23.840Z,101354.20
2018-08-16T19:09:52.242Z,101348.08
2018-08-16T19:12:20.619Z,101341.42
2018-08-16T19:14:49.005Z,101346.38
2018-08-16T19:17:17.397Z,101347.70
2018-08-16T19:19:45.799Z,101346.80
2018-08-16T19:22:14.180Z,101344.94
2018-08-16T19:24:49.315Z,101338.27
2018-08-16T19:27:17.698Z,101344.95
2018-08-16T19:29:46.116Z,101347.53
2018-08-16T19:32:14.525Z,101341.70
2018-08-16T19:34:42.930Z,101343.73
2018-08-16T19:37:11.298Z,101343.48
2018-08-16T19:39:39.686Z,101340.61
2018-08-16T19:42:08.071Z,101346.75
2018-08-16T19:44:36.467Z,101348.03
2018-08-16T19:47:04.856Z,101347.42
2018-08-16T19:49:33.274Z,101342.92
2018-08-16T19:52:01.834Z,101342.30
2018-08-16T19:54:30.233Z,101341.73
2018-08-16T19:56:58.831Z,101340.27
2018-08-16T19:59:27.199Z,101338.83
2018-08-16T20:01:55.650Z,101336.49
2018-08-16T20:04:24.112Z,101335.87
2018-08-16T20:06:52.503Z,101336.49
2018-08-16T20:09:20.878Z,101337.11
2018-08-16T20:11:49.269Z,101330.20
2018-08-16T20:14:17.642Z,101338.86
2018-08-16T20:16:46.054Z,101332.49
2018-08-16T20:19:14.447Z,101343.66
2018-08-16T20:21:42.841Z,101331.08
2018-08-16T20:24:11.295Z,101332.56
2018-08-16T20:26:39.646Z,101324.86
2018-08-16T20:29:08.047Z,101331.17
2018-08-16T20:31:36.441Z,101329.09
2018-08-16T20:34:04.821Z,101334.54
2018-08-16T20:36:33.210Z,101333.78
2018-08-16T20:39:01.742Z,101331.64
2018-08-16T20:41:30.136Z,101329.48
2018-08-16T20:43:58.515Z,101326.95
2018-08-16T20:46:26.919Z,101332.42
2018-08-16T20:48:55.290Z,101328.66
2018-08-16T20:51:23.674Z,101331.05
2018-08-16T20:53:52.047Z,101330.27
2018-08-16T20:56:20.450Z,101334.81
2018-08-16T20:58:48.818Z,101333.12
2018-08-16T21:01:17.211Z,101333.22
2018-08-16T21:03:45.587Z,101336.41
2018-08-16T21:06:13.977Z,101338.30
2018-08-16T21:08:42.351Z,101341.54
2018-08-16T21:11:10.762Z,101335.98
2018-08-16T21:13:39.164Z,101336.14
2018-08-16T21:16:07.589Z,101334.92
2018-08-16T21:18:36.219Z,101342.50
2018-08-16T21:21:04.618Z,101336.01
2018-08-16T21:23:32.989Z,101337.42
2018-08-16T21:26:01.382Z,101339.31
2018-08-16T21:28:29.750Z,101336.73
2018-08-16T21:30:58.134Z,101336.36
2018-08-16T21:33:26.511Z,101334.67
2018-08-16T21:35:54.901Z,101336.16
2018-08-16T21:38:23.266Z,101347.27
2018-08-16T21:40:51.666Z,101344.28
2018-08-16T21:43:20.034Z,101341.79
2018-08-16T21:45:48.436Z,101344.56
2018-08-16T21:48:16.854Z,101348.62
2018-08-16T21:50:45.239Z,101351.30
2018-08-16T21:53:13.603Z,101348.77
2018-08-16T21:55:41.993Z,101348.39
2018-08-16T21:58:10.353Z,101355.56
2018-08-16T22:00:57.121Z,101355.19
2018-08-16T22:03:26.803Z,101362.84
2018-08-16T22:05:59.415Z,101362.50
2018-08-16T22:08:44.863Z,101361.34
2018-08-16T22:11:13.279Z,101362.32
2018-08-16T22:13:41.831Z,101361.55
2018-08-16T22:16:10.299Z,101360.71
2018-08-16T22:18:39.089Z,101355.91
2018-08-16T22:21:07.697Z,101359.47
2018-08-16T22:23:36.057Z,101358.15
2018-08-16T22:26:04.510Z,101359.52
2018-08-16T22:28:33.017Z,101360.91
2018-08-16T22:31:01.619Z,101354.38
2018-08-16T22:33:30.720Z,101356.64
2018-08-16T22:35:59.095Z,101357.13
2018-08-16T22:38:27.490Z,101350.17
2018-08-16T22:40:55.858Z,101355.56
2018-08-16T22:43:24.250Z,101353.47
2018-08-16T22:45:52.626Z,101348.74
2018-08-16T22:48:21.009Z,101350.17
2018-08-16T22:50:49.383Z,101356.40
2018-08-16T22:53:17.778Z,101352.06
2018-08-16T22:55:46.146Z,101351.64
2018-08-16T22:58:14.542Z,101355.63
2018-08-16T23:00:42.913Z,101350.88
2018-08-16T23:03:11.301Z,101354.93
2018-08-16T23:05:39.675Z,101351.45
2018-08-16T23:08:08.286Z,101351.47
2018-08-16T23:10:36.653Z,101345.80
2018-08-16T23:13:05.067Z,101347.98
2018-08-16T23:15:33.463Z,101349.36
2018-08-16T23:18:01.856Z,101349.83
2018-08-16T23:20:30.234Z,101348.50
2018-08-16T23:22:58.630Z,101351.57
2018-08-16T23:25:26.990Z,101348.53
2018-08-16T23:27:55.395Z,101348.93
2018-08-16T23:30:23.767Z,101354.22
2018-08-16T23:32:52.150Z,101352.89
2018-08-16T23:35:20.518Z,101346.42
2018-08-16T23:37:48.910Z,101352.20
2018-08-16T23:40:17.277Z,101343.11
2018-08-16T23:42:45.661Z,101344.94
2018-08-16T23:45:14.030Z,101341.53
2018-08-16T23:47:43.558Z,101341.63
2018-08-16T23:50:12.195Z,101343.88
2018-08-16T23:52:40.594Z,101341.77
2018-08-16T23:55:09.353Z,101339.23
2018-08-16T23:57:37.750Z,101342.80
